Airfield :
LOGIN :

Register | Disclaimer

   EN    FR    IT 

 










Legend :    VFR   Marginal VFR   IFR   Intensive IFR   Very Intensive IFR
Visi :
Ceiling :
>= 8 km
>= 3000ft
5 to 8 km
1000 to 3000 ft
1500m to 5 km
500 to 1000 ft
800 to 1500m
200 to 500 ft
< 800m
< 200 ft
Symbols :   Thunderstorms  Fog  Heavy snow  Heavy precipitations  Wind > 20 kt
SIGMETs :     Misc.  Thunderstorms  Icing  Turbulence  Mountain Waves  Volcanic Ashes






- Airport Elevation : -11 ft
- IATA code : AMS


EHAM - Amsterdam Schiphol

CURRENT METAR :
  • 272055Z 16013KT 7000 -RADZ FEW008 SCT015 BKN038 08/07 Q0994 BECMG BKN015

EXPIRED METARs :
  • 272025Z 15012KT 9999 -DZ FEW012 SCT015 BKN048 08/06 Q0995 BECMG 7000 BKN015
  • 271955Z 15012KT 9999 FEW009 SCT040 07/06 Q0995 NOSIG
  • 271925Z 15011KT 120V180 9999 FEW007 SCT014 07/06 Q0996 NOSIG
  • 271855Z 15009KT 9999 FEW008 BKN015 08/06 Q0997 NOSIG
  • 271825Z 15010KT 9999 FEW012 SCT015 07/06 Q0998 TEMPO BKN015

TAF TAF EHAM
Valid from the 27 at 18:00 until the 29 at 00:00 UTC


271706Z 2718/2824 18010KT 9999 SCT018
PROB30
TEMPO 2718/2720 6000 SHRA BKN014 SCT018CB
BECMG 2720/2723 22015KT 7000 -RA BKN012
PROB40
TEMPO 2721/2724 4000 RA BKN008
BECMG 2723/2801 9999 NSW SCT018
TEMPO 2801/2809 6000 SHRA SCT018CB BKN025
PROB30
TEMPO 2804/2808 24017G27KT 4000 TSRAGS BKN012 SCT015CB
BECMG 2805/2808 27023G35KT
PROB30
TEMPO 2809/2813 27027G40KT 7000 -SHRA SCT018CB BKN025
BECMG 2815/2818 25015G25KT



MET'MAP, your aeronautical weather chart ! - Copyright ORBIFLY December 2007 - Disclaimer

ORBIFLY MET'MAP TEAM :

Programming & Development : Alexandra Zaïnal
Concept & original design : Baudouin d'Aumeries
Assistance for programming : Marc-Olivier Méhu
Technical & hardware support : Manuel Goepfert

Contact : metmap@orbifly.com




SOURCES & CREDITS :

   NOAA